createdAt,value
2023-05-14T00:00:37.308Z,50.87
2023-05-14T00:06:00.686Z,51.61
2023-05-14T00:11:04.204Z,51.86
2023-05-14T00:16:07.710Z,52.02
2023-05-14T00:21:11.336Z,51.60
2023-05-14T00:26:14.855Z,52.38
2023-05-14T00:31:18.428Z,52.77
2023-05-14T00:36:21.995Z,53.00
2023-05-14T00:41:25.514Z,52.97
2023-05-14T00:46:29.055Z,53.54
2023-05-14T00:51:32.638Z,53.99
2023-05-14T00:56:36.359Z,54.14
2023-05-14T01:01:40.292Z,54.44
2023-05-14T01:06:52.809Z,54.20
2023-05-14T01:12:11.581Z,54.21
2023-05-14T01:17:20.273Z,55.00
2023-05-14T01:22:23.630Z,55.78
2023-05-14T01:27:47.219Z,55.43
2023-05-14T01:32:54.979Z,55.93
2023-05-14T01:38:01.451Z,55.72
2023-05-14T01:43:05.588Z,56.33
2023-05-14T01:48:09.019Z,56.59
2023-05-14T01:53:12.776Z,56.71
2023-05-14T01:58:16.294Z,56.59
2023-05-14T02:03:19.708Z,57.14
2023-05-14T02:08:23.220Z,56.97
2023-05-14T02:13:27.247Z,57.25
2023-05-14T02:18:30.792Z,57.37
2023-05-14T02:23:41.477Z,57.23
2023-05-14T02:28:46.201Z,57.80
2023-05-14T02:33:49.709Z,57.80
2023-05-14T02:38:53.328Z,57.64
2023-05-14T02:43:56.947Z,57.79
2023-05-14T02:49:00.469Z,58.41
2023-05-14T02:54:04.183Z,58.65
2023-05-14T02:59:07.700Z,58.68
2023-05-14T03:04:11.728Z,58.87
2023-05-14T03:09:15.243Z,59.14
2023-05-14T03:14:18.761Z,58.83
2023-05-14T03:19:22.276Z,59.30
2023-05-14T03:24:25.860Z,59.38
2023-05-14T03:29:29.814Z,59.51
2023-05-14T03:34:33.434Z,59.70
2023-05-14T03:39:37.261Z,59.78
2023-05-14T03:44:40.989Z,59.95
2023-05-14T03:49:44.288Z,59.64
2023-05-14T03:54:47.804Z,59.65
2023-05-14T03:59:51.366Z,59.96
2023-05-14T04:04:54.877Z,60.02
2023-05-14T04:09:58.453Z,59.94
2023-05-14T04:15:01.869Z,59.92
2023-05-14T04:20:06.204Z,60.12
2023-05-14T04:25:09.619Z,59.80
2023-05-14T04:30:13.773Z,59.89
2023-05-14T04:35:17.061Z,59.40
2023-05-14T04:40:20.781Z,59.66
2023-05-14T04:45:24.387Z,59.55
2023-05-14T04:50:29.334Z,59.82
2023-05-14T04:55:32.753Z,59.80
2023-05-14T05:00:36.260Z,59.73
2023-05-14T05:05:39.685Z,59.70
2023-05-14T05:10:43.208Z,59.35
2023-05-14T05:15:46.642Z,59.44
2023-05-14T05:20:50.266Z,59.46
2023-05-14T05:25:53.849Z,59.26
2023-05-14T05:30:57.396Z,59.08
2023-05-14T05:36:01.189Z,58.98
2023-05-14T05:41:04.704Z,58.73
2023-05-14T05:46:08.385Z,58.41
2023-05-14T05:51:12.241Z,58.36
2023-05-14T05:56:15.656Z,58.07
2023-05-14T06:01:19.174Z,57.62
2023-05-14T06:06:22.588Z,57.56
2023-05-14T06:11:26.923Z,57.29
2023-05-14T06:16:30.606Z,57.05
2023-05-14T06:21:34.568Z,56.51
2023-05-14T06:26:38.181Z,56.15
2023-05-14T06:31:41.631Z,55.97
2023-05-14T06:36:45.420Z,55.50
2023-05-14T06:41:48.829Z,55.00
2023-05-14T06:46:52.372Z,54.53
2023-05-14T06:51:55.861Z,54.07
2023-05-14T06:56:59.480Z,53.58
2023-05-14T07:02:03.513Z,53.18
2023-05-14T07:07:07.136Z,52.12
2023-05-14T07:12:10.498Z,51.99
2023-05-14T07:17:14.215Z,51.36
2023-05-14T07:22:17.781Z,50.55
2023-05-14T07:27:21.398Z,49.84
2023-05-14T07:32:25.658Z,48.98
2023-05-14T07:37:29.144Z,48.10
2023-05-14T07:42:36.370Z,47.73
2023-05-14T07:47:41.322Z,46.72
2023-05-14T07:52:45.628Z,46.05
2023-05-14T07:57:49.245Z,45.48
2023-05-14T08:02:52.872Z,44.63
2023-05-14T08:07:56.590Z,43.92
2023-05-14T08:12:59.801Z,43.46
2023-05-14T08:18:04.102Z,42.95
2023-05-14T08:23:07.749Z,42.16
2023-05-14T08:28:11.263Z,41.56
2023-05-14T08:33:14.777Z,41.10
2023-05-14T08:38:18.195Z,40.44
2023-05-14T08:43:26.240Z,39.63
2023-05-14T08:48:33.681Z,39.38
2023-05-14T08:53:38.671Z,39.01
2023-05-14T08:58:42.188Z,38.59
2023-05-14T09:03:47.142Z,37.84
2023-05-14T09:08:50.756Z,37.36
2023-05-14T09:13:54.172Z,36.91
2023-05-14T09:18:58.561Z,36.52
2023-05-14T09:24:02.013Z,36.46
2023-05-14T09:29:05.425Z,35.93
2023-05-14T09:34:08.940Z,35.42
2023-05-14T09:39:12.361Z,34.93
2023-05-14T09:44:15.975Z,34.46
2023-05-14T09:49:20.308Z,34.10
2023-05-14T09:54:25.612Z,33.48
2023-05-14T09:59:29.079Z,33.12
2023-05-14T10:04:34.483Z,33.11
2023-05-14T10:09:41.948Z,32.74
2023-05-14T10:14:53.915Z,32.42
2023-05-14T10:20:00.218Z,31.86
2023-05-14T10:25:04.615Z,31.67
2023-05-14T10:30:13.034Z,31.42
2023-05-14T10:35:25.635Z,30.99
2023-05-14T10:40:28.946Z,30.74
2023-05-14T10:45:34.613Z,30.33
2023-05-14T10:50:38.846Z,29.69
2023-05-14T10:55:43.489Z,29.44
2023-05-14T11:00:50.197Z,29.07
2023-05-14T11:05:55.954Z,28.95
2023-05-14T11:11:00.589Z,28.52
2023-05-14T11:21:13.496Z,28.08
2023-05-14T11:26:18.815Z,27.74
2023-05-14T11:31:24.517Z,27.36
2023-05-14T11:36:27.794Z,27.31
2023-05-14T11:41:31.736Z,26.89
2023-05-14T11:46:35.353Z,26.84
2023-05-14T11:51:38.958Z,26.65
2023-05-14T11:56:42.471Z,27.24
2023-05-14T12:01:48.509Z,27.87
2023-05-14T12:06:53.492Z,27.77
2023-05-14T12:11:57.008Z,28.20
2023-05-14T12:17:02.265Z,28.25
2023-05-14T12:22:06.238Z,28.31
2023-05-14T12:27:11.452Z,28.22
2023-05-14T12:32:15.265Z,28.36
2023-05-14T12:37:18.888Z,28.47
2023-05-14T12:42:22.610Z,28.56
2023-05-14T12:47:26.233Z,28.60
2023-05-14T12:57:36.846Z,28.60
2023-05-14T13:02:42.986Z,28.09
2023-05-14T13:07:47.148Z,27.34
2023-05-14T13:12:51.075Z,27.09
2023-05-14T13:17:54.545Z,26.95
2023-05-14T13:22:58.515Z,27.02
2023-05-14T13:28:02.212Z,26.68
2023-05-14T13:33:06.204Z,25.88
2023-05-14T13:38:09.681Z,25.87
2023-05-14T13:43:13.190Z,25.78
2023-05-14T13:48:16.671Z,25.36
2023-05-14T13:53:21.870Z,23.88
2023-05-14T13:58:26.194Z,22.94
2023-05-14T14:03:29.811Z,21.74
2023-05-14T14:08:33.139Z,20.77
2023-05-14T14:13:37.564Z,19.51
2023-05-14T14:18:41.716Z,18.19
2023-05-14T14:23:48.484Z,15.70
2023-05-14T14:28:51.999Z,14.73
2023-05-14T14:33:55.417Z,13.56
2023-05-14T14:38:58.930Z,11.82
2023-05-14T14:44:03.162Z,10.32
2023-05-14T14:49:06.484Z,9.40
2023-05-14T14:54:09.884Z,8.98
2023-05-14T14:59:13.299Z,8.33
2023-05-14T15:04:16.710Z,7.52
2023-05-14T15:09:20.126Z,7.36
2023-05-14T15:14:23.649Z,6.78
2023-05-14T15:19:27.158Z,6.31
2023-05-14T15:24:30.675Z,6.54
2023-05-14T15:29:34.193Z,6.64
2023-05-14T15:34:37.704Z,6.52
2023-05-14T15:39:41.117Z,6.40
2023-05-14T15:44:44.755Z,6.08
2023-05-14T15:49:48.150Z,6.09
2023-05-14T15:54:52.378Z,6.11
2023-05-14T15:59:57.125Z,6.20
2023-05-14T16:05:00.752Z,6.14
2023-05-14T16:10:05.120Z,6.24
2023-05-14T16:15:09.458Z,6.46
2023-05-14T16:20:13.130Z,6.45
2023-05-14T16:25:18.904Z,6.52
2023-05-14T16:30:22.534Z,6.60
2023-05-14T16:35:26.135Z,6.61
2023-05-14T16:40:29.683Z,6.89
2023-05-14T16:45:35.105Z,7.12
2023-05-14T16:50:38.518Z,7.45
2023-05-14T16:55:41.934Z,7.96
2023-05-14T17:00:45.441Z,8.25
2023-05-14T17:05:48.954Z,8.41
2023-05-14T17:10:52.369Z,9.22
2023-05-14T17:15:56.240Z,9.23
2023-05-14T17:21:00.224Z,9.15
2023-05-14T17:26:03.866Z,9.45
2023-05-14T17:31:07.538Z,9.90
2023-05-14T17:36:11.377Z,10.23
2023-05-14T17:41:14.691Z,10.71
2023-05-14T17:46:18.633Z,11.32
2023-05-14T17:51:22.339Z,11.87
2023-05-14T17:56:26.269Z,12.57
2023-05-14T18:01:29.860Z,13.27
2023-05-14T18:06:33.409Z,13.78
2023-05-14T18:11:37.134Z,14.49
2023-05-14T18:16:40.908Z,15.29
2023-05-14T18:21:46.884Z,15.83
2023-05-14T18:26:50.768Z,16.67
2023-05-14T18:31:54.283Z,17.32
2023-05-14T18:36:58.654Z,17.97
2023-05-14T18:42:02.026Z,18.48
2023-05-14T18:47:06.251Z,19.15
2023-05-14T18:52:09.660Z,19.80
2023-05-14T18:57:14.100Z,20.09
2023-05-14T19:02:17.503Z,20.70
2023-05-14T19:07:22.089Z,21.34
2023-05-14T19:12:25.681Z,21.85
2023-05-14T19:17:29.445Z,22.24
2023-05-14T19:22:32.914Z,22.43
2023-05-14T19:27:38.159Z,22.98
2023-05-14T19:32:41.638Z,23.23
2023-05-14T19:37:46.431Z,23.93
2023-05-14T19:42:50.460Z,24.42
2023-05-14T19:47:54.204Z,24.74
2023-05-14T19:52:57.989Z,24.92
2023-05-14T19:58:01.715Z,25.19
2023-05-14T20:03:06.081Z,25.80
2023-05-14T20:08:09.772Z,26.08
2023-05-14T20:13:13.178Z,26.66
2023-05-14T20:18:18.243Z,26.76
2023-05-14T20:23:21.598Z,27.16
2023-05-14T20:28:25.262Z,27.10
2023-05-14T20:33:29.395Z,27.44
2023-05-14T20:38:35.212Z,27.97
2023-05-14T20:43:40.215Z,28.51
2023-05-14T20:48:43.898Z,28.99
2023-05-14T20:53:49.073Z,29.21
2023-05-14T20:58:52.714Z,29.66
2023-05-14T21:03:56.323Z,29.82
2023-05-14T21:09:00.052Z,30.34
2023-05-14T21:14:03.981Z,30.77
2023-05-14T21:19:07.443Z,31.08
2023-05-14T21:24:11.008Z,32.20
2023-05-14T21:29:14.516Z,32.85
2023-05-14T21:34:18.030Z,32.25
2023-05-14T21:39:21.444Z,32.72
2023-05-14T21:44:24.862Z,33.16
2023-05-14T21:49:28.274Z,33.56
2023-05-14T21:54:31.888Z,33.81
2023-05-14T21:59:35.707Z,34.03
2023-05-14T22:04:39.224Z,33.92
2023-05-14T22:09:42.745Z,34.49
2023-05-14T22:14:52.214Z,34.59
2023-05-14T22:19:55.727Z,34.68
2023-05-14T22:24:59.123Z,34.99
2023-05-14T22:30:02.749Z,35.44
2023-05-14T22:35:06.667Z,35.65
2023-05-14T22:40:10.589Z,35.77
2023-05-14T22:45:14.311Z,36.19
2023-05-14T22:50:17.933Z,36.10
2023-05-14T22:55:23.070Z,36.30
2023-05-14T23:00:26.602Z,36.68
2023-05-14T23:05:30.325Z,36.98
2023-05-14T23:10:35.769Z,37.14
2023-05-14T23:15:39.194Z,37.36
2023-05-14T23:20:42.722Z,37.57
2023-05-14T23:25:46.226Z,38.22
2023-05-14T23:30:49.951Z,38.27
2023-05-14T23:35:53.672Z,38.54
2023-05-14T23:40:57.081Z,39.11
2023-05-14T23:46:01.217Z,39.19
2023-05-14T23:51:04.822Z,39.73
2023-05-14T23:56:09.260Z,40.19
